createdAt,value
2022-09-17T00:01:15.044Z,12.10
2022-09-17T00:03:41.736Z,12.10
2022-09-17T00:06:10.736Z,12.10
2022-09-17T00:08:40.811Z,12.10
2022-09-17T00:11:13.997Z,12.10
2022-09-17T00:13:41.613Z,12.10
2022-09-17T00:16:09.805Z,12.10
2022-09-17T00:18:40.671Z,12.10
2022-09-17T00:21:15.866Z,12.10
2022-09-17T00:23:42.907Z,12.10
2022-09-17T00:26:09.639Z,12.10
2022-09-17T00:28:36.398Z,12.00
2022-09-17T00:31:08.368Z,12.00
2022-09-17T00:33:35.316Z,12.10
2022-09-17T00:36:04.013Z,12.10
2022-09-17T00:38:30.876Z,12.20
2022-09-17T00:40:57.626Z,12.10
2022-09-17T00:43:57.193Z,12.10
2022-09-17T00:46:33.005Z,12.10
2022-09-17T00:49:04.326Z,12.20
2022-09-17T00:51:38.475Z,12.20
2022-09-17T00:54:08.352Z,12.20
2022-09-17T00:56:38.711Z,12.20
2022-09-17T00:59:06.309Z,12.20
2022-09-17T01:01:33.326Z,12.20
2022-09-17T01:04:00.187Z,12.10
2022-09-17T01:06:35.780Z,12.10
2022-09-17T01:09:17.607Z,12.10
2022-09-17T01:12:16.077Z,12.00
2022-09-17T01:15:19.887Z,12.00
2022-09-17T01:17:53.839Z,12.10
2022-09-17T01:21:01.795Z,12.10
2022-09-17T01:24:02.945Z,12.20
2022-09-17T01:26:32.495Z,12.10
2022-09-17T01:29:21.151Z,12.00
2022-09-17T01:32:00.098Z,12.10
2022-09-17T01:34:36.587Z,11.90
2022-09-17T01:37:14.604Z,11.90
2022-09-17T01:39:52.824Z,12.00
2022-09-17T01:42:37.881Z,11.90
2022-09-17T01:45:17.471Z,12.00
2022-09-17T01:47:55.672Z,11.90
2022-09-17T01:50:38.243Z,11.90
2022-09-17T01:53:07.189Z,12.00
2022-09-17T01:55:38.511Z,11.90
2022-09-17T01:58:13.067Z,11.80
2022-09-17T02:00:43.273Z,11.90
2022-09-17T02:03:23.343Z,12.00
2022-09-17T02:06:15.673Z,12.00
2022-09-17T02:08:55.084Z,12.20
2022-09-17T02:11:22.350Z,12.20
2022-09-17T02:14:00.982Z,12.20
2022-09-17T02:16:34.225Z,12.10
2022-09-17T02:19:24.974Z,12.10
2022-09-17T02:22:23.035Z,12.20
2022-09-17T02:25:06.931Z,12.10
2022-09-17T02:27:49.559Z,12.00
2022-09-17T02:30:16.755Z,12.00
2022-09-17T02:32:44.115Z,12.00
2022-09-17T02:35:13.887Z,11.90
2022-09-17T02:37:44.339Z,11.90
2022-09-17T02:40:14.013Z,11.80
2022-09-17T02:43:07.742Z,11.90
2022-09-17T02:46:00.446Z,12.00
2022-09-17T02:48:58.403Z,12.00
2022-09-17T02:51:45.723Z,12.10
2022-09-17T02:54:27.525Z,12.10
2022-09-17T02:57:01.564Z,12.00
2022-09-17T02:59:28.240Z,11.90
2022-09-17T03:02:09.094Z,11.80
2022-09-17T03:04:38.394Z,11.80
2022-09-17T03:07:12.049Z,11.80
2022-09-17T03:09:39.254Z,11.80
2022-09-17T03:12:06.382Z,11.90
2022-09-17T03:14:33.152Z,11.90
2022-09-17T03:16:59.882Z,12.00
2022-09-17T03:19:27.937Z,12.00
2022-09-17T03:21:54.926Z,11.90
2022-09-17T03:24:22.052Z,12.00
2022-09-17T03:26:49.424Z,12.00
2022-09-17T03:29:17.043Z,12.00
2022-09-17T03:31:43.825Z,12.00
2022-09-17T03:34:10.670Z,12.00
2022-09-17T03:36:37.416Z,12.00
2022-09-17T03:39:04.438Z,11.90
2022-09-17T03:41:31.171Z,11.90
2022-09-17T03:43:58.027Z,11.90
2022-09-17T03:46:24.868Z,11.90
2022-09-17T03:48:51.671Z,11.90
2022-09-17T03:51:18.448Z,11.90
2022-09-17T03:53:45.412Z,11.90
2022-09-17T03:56:12.355Z,11.80
2022-09-17T03:58:39.251Z,11.90
2022-09-17T04:01:06.126Z,11.90
2022-09-17T04:03:33.555Z,11.90
2022-09-17T04:06:00.487Z,12.00
2022-09-17T04:08:27.417Z,12.00
2022-09-17T04:10:54.416Z,12.00
2022-09-17T04:13:21.279Z,11.90
2022-09-17T04:15:49.010Z,11.90
2022-09-17T04:18:16.320Z,11.90
2022-09-17T04:20:43.387Z,11.90
2022-09-17T04:23:12.316Z,12.00
2022-09-17T04:25:39.381Z,11.90
2022-09-17T04:28:06.095Z,11.90
2022-09-17T04:30:33.224Z,11.80
2022-09-17T04:32:59.967Z,11.80
2022-09-17T04:35:26.764Z,11.80
2022-09-17T04:37:55.459Z,11.90
2022-09-17T04:40:23.588Z,11.90
2022-09-17T04:42:55.340Z,11.90
2022-09-17T04:45:22.503Z,11.90
2022-09-17T04:47:50.991Z,11.90
2022-09-17T04:50:22.039Z,12.00
2022-09-17T04:52:49.062Z,11.90
2022-09-17T04:55:16.463Z,12.00
2022-09-17T04:57:51.354Z,11.90
2022-09-17T05:00:19.482Z,11.70
2022-09-17T05:02:47.938Z,11.60
2022-09-17T05:05:16.123Z,11.70
2022-09-17T05:07:43.191Z,11.70
2022-09-17T05:10:11.449Z,11.80
2022-09-17T05:12:38.340Z,11.90
2022-09-17T05:15:06.200Z,11.90
2022-09-17T05:17:32.968Z,11.90
2022-09-17T05:19:59.694Z,11.80
2022-09-17T05:22:26.443Z,11.80
2022-09-17T05:24:53.192Z,11.90
2022-09-17T05:27:19.883Z,11.90
2022-09-17T05:29:46.766Z,11.90
2022-09-17T05:32:13.560Z,11.90
2022-09-17T05:34:40.698Z,11.90
2022-09-17T05:37:10.983Z,11.90
2022-09-17T05:39:37.749Z,11.90
2022-09-17T05:42:04.570Z,11.70
2022-09-17T05:44:31.836Z,11.60
2022-09-17T05:46:59.245Z,11.60
2022-09-17T05:49:26.127Z,11.70
2022-09-17T05:51:52.873Z,11.80
2022-09-17T05:54:19.638Z,11.80
2022-09-17T05:56:46.430Z,11.90
2022-09-17T05:59:13.208Z,11.90
2022-09-17T06:01:40.015Z,11.90
2022-09-17T06:04:06.781Z,11.80
2022-09-17T06:06:33.512Z,11.80
2022-09-17T06:09:00.657Z,11.80
2022-09-17T06:11:27.502Z,11.80
2022-09-17T06:13:55.115Z,11.80
2022-09-17T06:16:23.614Z,11.70
2022-09-17T06:18:52.756Z,11.60
2022-09-17T06:21:21.494Z,11.70
2022-09-17T06:23:48.495Z,11.70
2022-09-17T06:26:15.401Z,11.70
2022-09-17T06:28:42.545Z,11.80
2022-09-17T06:31:11.265Z,11.80
2022-09-17T06:33:38.107Z,11.80
2022-09-17T06:36:13.976Z,11.90
2022-09-17T06:38:41.612Z,11.80
2022-09-17T06:41:08.901Z,11.80
2022-09-17T06:43:35.691Z,11.90
2022-09-17T06:46:09.323Z,11.80
2022-09-17T06:48:37.772Z,11.70
2022-09-17T06:51:10.499Z,11.70
2022-09-17T06:53:38.170Z,11.70
2022-09-17T06:56:06.981Z,11.70
2022-09-17T06:58:37.046Z,11.60
2022-09-17T07:01:05.276Z,11.80
2022-09-17T07:03:32.440Z,11.80
2022-09-17T07:05:59.811Z,11.70
2022-09-17T07:08:26.702Z,11.70
2022-09-17T07:10:57.816Z,11.60
2022-09-17T07:13:25.400Z,11.50
2022-09-17T07:16:00.682Z,11.50
2022-09-17T07:18:28.330Z,11.60
2022-09-17T07:20:57.297Z,11.60
2022-09-17T07:23:25.924Z,11.60
2022-09-17T07:25:56.841Z,11.40
2022-09-17T07:28:24.719Z,11.30
2022-09-17T07:30:52.297Z,11.40
2022-09-17T07:33:23.335Z,11.40
2022-09-17T07:35:55.322Z,11.50
2022-09-17T07:38:23.091Z,11.70
2022-09-17T07:41:15.924Z,11.70
2022-09-17T07:43:43.660Z,11.80
2022-09-17T07:46:16.330Z,11.80
2022-09-17T07:48:43.248Z,11.70
2022-09-17T07:51:16.807Z,11.70
2022-09-17T07:53:43.682Z,11.80
2022-09-17T07:56:11.967Z,11.90
2022-09-17T07:58:39.346Z,11.90
2022-09-17T08:01:08.685Z,11.90
2022-09-17T08:03:36.932Z,11.90
2022-09-17T08:06:12.241Z,11.90
2022-09-17T08:08:39.646Z,11.90
2022-09-17T08:11:11.190Z,11.90
2022-09-17T08:13:38.652Z,11.90
2022-09-17T08:16:07.847Z,11.90
2022-09-17T08:18:35.687Z,12.00
2022-09-17T08:21:04.670Z,12.00
2022-09-17T08:23:34.568Z,12.10
2022-09-17T08:26:01.798Z,12.10
2022-09-17T08:28:30.815Z,12.10
2022-09-17T08:31:02.617Z,12.10
2022-09-17T08:33:37.994Z,12.10
2022-09-17T08:36:06.782Z,12.10
2022-09-17T08:38:38.634Z,12.20
2022-09-17T08:41:11.466Z,12.20
2022-09-17T08:43:57.778Z,12.10
2022-09-17T08:46:26.315Z,12.00
2022-09-17T08:49:21.882Z,11.70
2022-09-17T08:51:53.241Z,11.60
2022-09-17T08:54:52.504Z,11.50
2022-09-17T08:57:19.162Z,11.70
2022-09-17T09:00:18.707Z,11.90
2022-09-17T09:03:13.711Z,11.90
2022-09-17T09:05:46.153Z,11.90
2022-09-17T09:08:24.814Z,12.00
2022-09-17T09:10:55.771Z,11.90
2022-09-17T09:13:25.544Z,11.90
2022-09-17T09:16:10.929Z,11.90
2022-09-17T09:18:42.261Z,12.00
2022-09-17T09:21:18.358Z,12.10
2022-09-17T09:24:10.118Z,12.10
2022-09-17T09:27:27.380Z,12.20
2022-09-17T09:29:58.475Z,12.20
2022-09-17T09:32:52.789Z,12.20
2022-09-17T09:35:31.125Z,12.10
2022-09-17T09:38:09.168Z,12.30
2022-09-17T09:40:50.576Z,12.20
2022-09-17T09:44:04.022Z,12.10
2022-09-17T09:46:38.803Z,12.20
2022-09-17T09:49:11.904Z,12.10
2022-09-17T09:51:57.275Z,12.10
2022-09-17T09:54:48.060Z,12.20
2022-09-17T09:57:18.158Z,12.50
2022-09-17T09:59:45.006Z,12.50
2022-09-17T10:02:12.109Z,12.40
2022-09-17T10:04:38.961Z,12.50
2022-09-17T10:07:11.567Z,12.70
2022-09-17T10:09:46.273Z,12.80
2022-09-17T10:12:13.417Z,12.90
2022-09-17T10:14:41.750Z,13.00
2022-09-17T10:17:24.548Z,12.90
2022-09-17T10:20:08.804Z,13.00
2022-09-17T10:22:39.956Z,13.00
2022-09-17T10:25:35.327Z,13.10
2022-09-17T10:28:05.571Z,12.70
2022-09-17T10:30:32.616Z,12.90
2022-09-17T10:33:21.673Z,12.70
2022-09-17T10:36:38.028Z,12.60
2022-09-17T10:39:34.205Z,12.60
2022-09-17T10:42:18.630Z,12.50
2022-09-17T10:44:59.109Z,12.30
2022-09-17T10:47:45.427Z,12.30
2022-09-17T10:50:18.628Z,12.30
2022-09-17T10:52:51.882Z,12.40
2022-09-17T10:55:50.624Z,12.40
2022-09-17T10:58:49.714Z,12.30
2022-09-17T11:01:43.550Z,12.40
2022-09-17T11:04:17.584Z,12.20
2022-09-17T11:07:06.213Z,11.90
2022-09-17T11:09:39.302Z,12.00
2022-09-17T11:12:29.288Z,11.90
2022-09-17T11:14:58.953Z,11.80
2022-09-17T11:17:50.043Z,11.90
2022-09-17T11:24:13.175Z,11.70
2022-09-17T11:26:52.012Z,11.60
2022-09-17T11:29:36.456Z,11.80
2022-09-17T11:32:30.977Z,12.00
2022-09-17T11:35:03.749Z,12.00
2022-09-17T11:41:23.571Z,12.00
2022-09-17T11:44:38.221Z,12.00
2022-09-17T11:51:21.484Z,12.00
2022-09-17T11:58:20.610Z,12.20
2022-09-17T12:04:45.936Z,11.90
2022-09-17T12:11:23.410Z,12.10
2022-09-17T12:13:54.738Z,11.90
2022-09-17T12:16:38.945Z,12.00
2022-09-17T12:19:14.810Z,12.00
2022-09-17T12:21:49.136Z,12.20
2022-09-17T12:24:28.294Z,12.10
2022-09-17T12:27:22.778Z,12.10
2022-09-17T12:30:14.773Z,12.00
2022-09-17T12:33:07.202Z,12.10
2022-09-17T12:36:04.359Z,11.90
2022-09-17T12:54:17.120Z,11.60
2022-09-17T13:43:26.247Z,11.30
2022-09-17T13:45:59.416Z,11.20
2022-09-17T13:48:45.215Z,11.30
2022-09-17T14:06:36.073Z,11.30
2022-09-17T14:09:36.084Z,11.20
2022-09-17T14:19:51.089Z,11.20
2022-09-17T14:31:12.283Z,11.20
2022-09-17T14:33:39.982Z,11.20
2022-09-17T14:39:53.494Z,11.50
2022-09-17T14:53:44.607Z,11.40
2022-09-17T15:00:54.331Z,11.40
2022-09-17T15:07:22.519Z,11.50
2022-09-17T15:09:55.216Z,11.50
2022-09-17T15:16:27.687Z,11.50
2022-09-17T15:19:20.824Z,11.30
2022-09-17T15:21:49.456Z,11.40
2022-09-17T15:24:40.791Z,11.30
2022-09-17T16:09:38.528Z,10.70
2022-09-17T16:12:05.524Z,10.60
2022-09-17T16:14:32.320Z,10.70
2022-09-17T16:40:52.525Z,10.40
2022-09-17T16:43:19.341Z,10.30
2022-09-17T17:09:01.045Z,10.90
2022-09-17T17:15:20.971Z,10.90
2022-09-17T18:04:29.748Z,10.90
2022-09-17T18:27:22.582Z,10.60
